This is the latest recevied weather packets stored in our database for station/object KD2VWU. If no packets are shown the sender has not sent any weather packets the latest 10 day(s).
| Time | Temp. | Humidity | Pressure | Rain* | Wind** | Luminosity | Snow |
|---|---|---|---|---|---|---|---|
| 1777743468 | 11.11° C | 77% | 1008.8 hPa | 0 mm | - | - | - |
| 1777742863 | 10.56° C | 78% | 1008.9 hPa | 0 mm | - | - | - |
| 1777742255 | 10.56° C | 78% | 1009 hPa | 0 mm | - | - | - |
| 1777741649 | 10.56° C | 78% | 1009 hPa | 0 mm | - | - | - |
| 1777741041 | 10.56° C | 81% | 1009 hPa | 0 mm | - | - | - |
| 1777739822 | 11.11° C | 80% | 1009.3 hPa | 0 mm | - | - | - |
| 1777738610 | 10.56° C | 80% | 1009.2 hPa | 0 mm | - | - | - |
| 1777738307 | 12.22° C | 77% | 1009.1 hPa | 0 mm | - | - | - |
| 1777738005 | 12.78° C | 75% | 1009.1 hPa | 0 mm | - | - | - |
| 1777737704 | 12.78° C | 73% | 1008.8 hPa | 0 mm | - | - | - |
| 1777736166 | 12.22° C | 77% | 1008.9 hPa | 0 mm | - | - | - |
| 1777735863 | 12.22° C | 74% | 1009.1 hPa | 0 mm | - | - | - |
| 1777735561 | 12.22° C | 74% | 1009.1 hPa | 0 mm | - | - | - |
| 1777735257 | 11.67° C | 81% | 1009.1 hPa | 0 mm | - | - | - |
| 1777734954 | 11.67° C | 78% | 1009 hPa | 0 mm | - | - | - |
| 1777734652 | 11.67° C | 80% | 1008.9 hPa | 0 mm | - | - | - |
| 1777734349 | 11.67° C | 79% | 1009.1 hPa | 0 mm | - | - | - |
| 1777734045 | 11.11° C | 82% | 1009.1 hPa | 0 mm | - | - | - |
| 1777733742 | 11.11° C | 83% | 1009.2 hPa | 0 mm | - | - | - |
| 1777733439 | 11.11° C | 84% | 1009 hPa | 0 mm | - | - | - |
| 1777733135 | 10.56° C | 87% | 1009.1 hPa | 0 mm | - | - | - |
| 1777732832 | 10.56° C | 87% | 1009.2 hPa | 0 mm | - | - | - |
| 1777732528 | 10° C | 89% | 1009.4 hPa | 0 mm | - | - | - |
| 1777732227 | 10° C | 88% | 1009.2 hPa | 0 mm | - | - | - |
| 1777731923 | 10° C | 88% | 1009 hPa | 0 mm | - | - | - |
* Rain latest hour (hover to see other rain measurements)
** Current wind speed in m/s (hover to see current wind gust speed)